Date,TemperatureHighF,TemperatureAvgF,TemperatureLowF,DewpointHighF,DewpointAvgF,DewpointLowF,HumidityHigh,HumidityAvg,HumidityLow,PressureMaxIn,PressureMinIn,WindSpeedMaxMPH,WindSpeedAvgMPH,GustSpeedMaxMPH,PrecipitationSumIn
2014-1-1,55,40,29,31,26,21,72,58,41,29.79,29.54,16,4,16,0.00
2014-1-2,21,12,4,11,2,-4,75,65,42,30.08,29.76,15,6,15,0.00
2014-1-3,37,29,12,19,13,0,59,51,44,30.00,29.57,24,9,24,0.00
2014-1-4,41,34,28,30,24,14,83,68,55,29.58,29.46,19,5,19,0.04
2014-1-5,33,15,4,29,5,-12,83,66,43,30.06,29.44,22,9,22,0.01
2014-1-6,5,4,2,-11,-14,-20,46,42,33,30.20,30.05,19,6,19,0.00
2014-1-7,42,33,18,20,14,0,60,46,35,29.95,29.79,21,6,21,0.02
2014-1-8,45,32,26,26,19,12,81,59,44,29.95,29.85,11,2,11,0.00
2014-1-9,35,32,29,28,26,24,83,79,75,29.91,29.73,12,4,12,0.02
2014-1-10,49,42,34,43,37,29,87,82,75,29.68,29.20,20,6,20,0.63
2014-1-11,51,38,27,37,30,20,82,72,55,29.63,29.31,21,6,21,0.00
2014-1-12,69,50,24,33,28,19,81,47,20,29.61,29.25,30,9,30,0.00
2014-1-13,57,46,28,43,33,20,78,60,43,29.56,29.29,21,6,21,0.00
2014-1-14,49,33,22,24,14,8,66,47,23,30.14,29.92,23,4,23,0.65
2014-1-15,36,27,19,16,7,-5,61,44,22,30.12,29.88,15,5,15,0.00
2014-1-16,50,41,33,30,24,17,65,51,32,29.82,29.69,31,9,31,0.00
2014-1-17,33,24,16,11,4,-10,63,42,18,30.02,29.87,29,8,29,0.00
2014-1-18,52,39,16,30,20,6,66,47,39,29.95,29.66,31,11,31,0.00
2014-1-19,57,36,18,30,20,10,76,55,26,30.02,29.77,21,6,21,0.00
2014-1-20,62,45,25,32,26,17,76,51,24,29.95,29.76,17,4,17,0.00
2014-1-21,33,19,10,19,1,-10,61,46,22,30.28,29.99,21,7,21,0.00
2014-1-22,40,27,15,22,10,0,61,49,42,30.08,29.96,17,4,17,0.00
2014-1-23,23,11,5,10,-11,-17,58,37,22,30.60,30.19,17,6,17,0.00
2014-1-24,38,31,13,2,-2,-11,47,24,17,30.34,29.87,24,13,24,0.00
2014-1-25,52,40,24,36,23,3,75,53,25,29.88,29.72,24,8,24,0.00
2014-1-26,62,44,30,36,28,-1,74,56,22,29.90,29.54,25,6,25,0.00
2014-1-27,33,17,13,17,-10,-18,58,29,19,30.28,29.91,26,9,26,0.00
2014-1-28,26,14,7,-1,-10,-16,62,36,21,30.35,30.22,13,3,13,0.00
2014-1-29,42,27,7,17,6,-4,83,43,21,30.19,29.91,18,6,18,0.00
2014-1-30,50,35,27,23,13,7,69,41,26,29.93,29.67,24,9,24,0.00
2014-1-31,38,34,25,31,26,17,82,76,65,29.85,29.74,9,2,9,0.02
2014-2-1,44,34,26,39,30,20,87,83,79,29.95,29.61,13,4,13,0.15
2014-2-2,25,22,18,19,15,10,79,73,64,30.19,29.99,14,5,14,0.00
2014-2-3,47,24,9,17,9,2,77,56,25,30.21,30.06,9,2,9,0.00
2014-2-4,31,28,25,22,17,12,78,66,48,30.05,29.75,24,4,24,0.00
2014-2-5,25,14,8,19,4,-5,77,63,54,30.44,29.86,17,8,17,0.00
2014-2-6,18,10,4,-5,-8,-11,58,45,32,30.46,30.31,11,3,11,0.00
2014-2-7,24,20,13,9,5,-5,58,51,42,30.28,30.11,11,3,11,0.00
2014-2-8,32,24,19,24,16,7,75,70,60,30.09,29.92,10,2,10,0.01
2014-2-9,31,27,22,23,20,14,80,74,63,30.17,29.99,12,3,12,0.00
2014-2-10,32,19,14,14,6,-2,75,58,34,30.29,30.17,14,4,14,0.01
2014-2-11,36,18,8,3,-2,-9,66,42,20,30.31,30.12,8,2,8,0.00
2014-2-12,46,29,9,23,10,-3,67,46,26,30.11,29.86,8,2,8,0.01
2014-2-13,51,33,18,34,23,11,78,67,47,29.87,29.68,19,4,19,0.00
2014-2-14,48,36,26,38,27,15,79,69,63,29.96,29.51,21,6,21,0.01
2014-2-15,52,31,14,30,19,8,77,62,36,30.00,29.74,17,3,17,0.00
2014-2-16,56,40,22,34,27,16,80,62,36,30.04,29.87,18,2,18,0.00
2014-2-17,58,45,32,40,29,22,70,56,30,29.99,29.70,25,8,30,0.00
2014-2-18,70,50,34,36,27,20,69,44,16,29.96,29.65,21,6,21,0.00
2014-2-19,65,49,29,37,28,18,78,49,18,29.92,29.60,17,4,17,0.00
2014-2-20,72,52,35,55,42,25,80,67,42,29.74,29.29,44,11,44,0.17
2014-2-21,60,45,27,26,18,11,70,39,16,29.89,29.75,26,9,26,0.00
2014-2-22,70,51,32,32,25,17,58,39,21,29.86,29.69,17,5,17,0.00
2014-2-23,51,38,28,31,21,13,75,53,27,30.16,29.79,18,6,18,0.00
2014-2-24,52,36,22,19,13,4,66,42,20,30.19,29.97,15,3,15,0.00
2014-2-25,41,31,24,22,17,12,68,54,42,30.17,30.03,14,4,14,0.00
2014-2-26,31,21,14,9,1,-9,68,45,20,30.22,29.92,17,6,17,0.00
2014-2-27,47,31,16,15,8,3,66,40,19,29.99,29.81,10,3,10,0.00
2014-2-28,47,36,24,32,23,11,72,57,42,29.85,29.73,21,7,21,0.00
2014-3-1,52,38,26,39,29,18,83,70,59,30.03,29.87,14,4,14,0.00
2014-3-2,26,14,7,18,6,-3,76,70,63,30.20,30.00,21,8,21,0.00
2014-3-3,33,19,4,5,-6,-14,67,35,21,30.33,30.15,11,3,11,0.02
2014-3-4,46,28,9,17,7,-2,68,44,22,30.14,29.92,10,2,10,0.05
2014-3-5,55,37,20,29,20,12,73,54,24,30.05,29.93,8,2,8,0.00
2014-3-6,58,38,22,30,22,16,77,57,27,30.09,29.91,9,2,9,0.00
2014-3-7,65,49,26,34,28,18,75,47,30,29.91,29.75,13,5,13,0.00
2014-3-8,43,35,32,34,28,25,83,78,69,30.17,29.84,11,3,11,0.26
2014-3-9,58,41,31,41,31,25,82,68,33,30.20,29.96,14,3,14,0.00
2014-3-10,75,55,38,41,34,18,84,53,14,29.96,29.67,24,7,24,0.00
2014-3-11,82,64,48,55,46,34,65,54,40,29.66,29.36,18,6,18,0.00
2014-3-12,52,40,29,37,26,16,80,59,27,30.04,29.58,23,10,23,0.00
2014-3-13,68,47,26,32,21,14,79,44,14,30.04,29.86,24,6,24,0.00
2014-3-14,67,54,37,36,30,24,73,43,24,29.90,29.77,21,7,21,0.00
2014-3-15,70,51,29,48,36,23,78,59,33,29.90,29.70,17,3,17,0.00
2014-3-16,57,37,27,47,31,19,85,78,67,29.96,29.61,24,8,24,0.77
2014-3-17,53,33,14,30,18,8,78,58,25,29.99,29.60,11,3,11,0.13
2014-3-18,69,52,38,43,37,31,81,59,35,29.59,29.37,28,9,28,0.00
2014-3-19,54,44,36,38,32,26,75,63,43,30.03,29.56,21,9,21,0.00
2014-3-20,70,48,26,35,23,15,83,46,14,30.04,29.82,24,5,24,0.00
2014-3-21,78,59,47,47,35,23,51,40,29,29.86,29.69,27,8,27,0.00
2014-3-22,57,46,35,35,28,22,74,52,32,30.13,29.91,13,6,13,0.00
2014-3-23,48,37,28,22,16,8,66,44,22,30.31,30.14,14,5,14,0.00
2014-3-24,52,36,23,33,21,11,82,56,33,30.17,29.99,15,3,15,0.07
2014-3-25,42,34,25,27,21,10,81,60,31,30.24,30.08,21,6,21,0.00
2014-3-26,55,39,21,36,21,13,77,53,23,30.14,29.75,27,7,27,0.11
2014-3-27,70,55,43,53,43,34,75,64,55,29.75,29.42,27,12,27,0.13
2014-3-28,58,45,32,42,35,26,82,69,56,29.93,29.71,11,3,11,0.01
2014-3-29,57,43,32,37,32,27,81,67,43,30.14,29.96,17,4,17,0.00
2014-3-30,72,52,26,41,33,20,82,52,28,30.14,29.85,17,5,17,0.00
2014-3-31,68,58,52,48,42,38,68,57,44,29.84,29.65,25,9,25,0.00
2014-4-1,61,50,37,46,34,25,81,56,42,29.98,29.81,12,4,12,0.00
2014-4-2,73,62,50,58,51,39,79,68,58,29.82,29.62,17,4,17,0.01
2014-4-3,82,71,59,60,56,47,71,61,48,29.62,29.47,29,10,29,0.08
2014-4-4,51,43,34,41,32,26,72,65,54,30.02,29.64,24,10,24,0.00
2014-4-5,62,43,24,35,27,18,83,58,27,30.09,29.93,12,2,12,0.00
2014-4-6,63,51,41,39,36,32,73,56,40,29.96,29.73,14,3,14,0.00
2014-4-7,66,50,43,45,38,25,83,66,26,29.73,29.61,21,4,21,0.26
2014-4-8,60,51,42,42,38,32,78,61,44,29.96,29.71,21,5,21,0.09
2014-4-9,73,52,29,39,31,24,85,51,23,30.06,29.83,19,4,19,0.00
2014-4-10,83,68,56,54,45,36,65,44,31,29.82,29.70,30,10,30,0.01
2014-4-11,82,63,45,55,46,37,76,56,38,29.96,29.82,11,2,11,0.00
2014-4-12,81,70,61,59,54,49,65,56,46,29.87,29.60,24,9,25,0.02
2014-4-13,73,66,56,57,53,47,80,64,56,29.63,29.42,31,10,31,0.27
2014-4-14,56,38,32,49,31,22,86,76,61,30.03,29.53,18,7,18,0.04
2014-4-15,58,39,23,33,23,16,84,57,24,30.11,29.99,17,2,17,0.00
2014-4-16,64,51,39,36,30,24,68,47,29,30.01,29.84,27,9,27,0.00
2014-4-17,68,54,41,44,37,31,70,54,38,30.13,29.95,12,4,12,0.00
2014-4-18,76,58,37,47,40,31,85,56,31,30.17,30.03,13,2,13,0.00
2014-4-19,79,63,44,52,45,36,78,53,33,30.12,29.99,14,4,14,0.01
2014-4-20,80,68,55,55,50,44,66,53,41,30.06,29.93,16,4,16,0.00
2014-4-21,68,62,56,56,53,46,83,71,60,29.94,29.84,15,3,15,0.43
2014-4-22,72,60,47,54,44,36,85,58,29,29.98,29.86,13,3,13,0.01
2014-4-23,81,62,42,48,41,36,83,49,29,29.92,29.71,20,5,20,0.00
2014-4-24,78,63,51,57,48,43,78,60,47,29.75,29.51,30,10,30,0.59
2014-4-25,79,60,39,51,42,35,88,55,25,29.89,29.75,16,4,16,0.00
2014-4-26,82,64,46,55,46,38,75,53,33,29.80,29.59,21,5,21,0.00
2014-4-27,80,69,64,61,56,52,74,64,53,29.56,29.31,23,9,23,0.28
2014-4-28,69,62,57,55,47,42,76,60,42,29.46,29.28,30,11,30,0.06
2014-4-29,55,50,44,42,39,37,82,66,58,29.70,29.42,26,12,26,0.01
2014-4-30,55,47,43,41,36,32,81,67,51,29.89,29.72,19,6,19,0.00
2014-5-1,58,47,36,41,35,27,78,62,50,29.92,29.85,22,5,22,0.00
2014-5-2,67,51,33,44,36,29,85,61,37,29.91,29.79,17,3,17,0.00
2014-5-3,82,65,48,49,40,30,65,43,17,29.85,29.78,20,6,20,0.01
2014-5-4,94,75,52,53,46,40,66,39,17,29.83,29.69,24,8,24,0.00
2014-5-5,94,78,66,60,51,45,54,39,25,29.72,29.58,21,9,21,0.00
2014-5-6,89,76,63,64,57,50,64,52,42,29.67,29.55,27,8,27,0.00
2014-5-7,89,77,68,64,58,54,61,53,43,29.71,29.61,25,10,25,0.00
2014-5-8,80,71,66,61,57,55,76,62,53,29.81,29.69,20,8,20,0.58
2014-5-9,77,66,57,60,54,50,80,67,54,29.83,29.67,16,2,16,0.26
2014-5-10,87,70,52,64,56,47,85,64,44,29.82,29.68,20,5,20,0.00
2014-5-11,87,76,67,64,60,57,72,59,48,29.78,29.65,22,8,22,0.00
2014-5-12,88,74,58,65,60,51,79,62,46,29.83,29.67,25,8,25,0.64
2014-5-13,55,52,48,50,44,42,83,76,68,30.11,29.89,8,3,13,0.02
2014-5-14,51,48,45,44,40,35,85,75,56,30.11,30.02,13,2,13,0.26
2014-5-15,64,51,38,47,37,28,87,63,33,30.02,29.97,18,4,18,0.00
2014-5-16,64,49,33,43,34,29,87,60,33,30.00,29.95,16,3,16,0.00
2014-5-17,70,55,42,46,41,37,85,62,36,30.06,29.99,11,2,11,0.01
2014-5-18,76,59,43,54,46,38,85,63,45,30.10,29.96,18,4,18,0.00
2014-5-19,83,69,58,60,52,48,72,57,33,29.97,29.74,32,10,32,0.00
2014-5-20,87,75,64,63,57,52,66,54,42,29.84,29.76,22,8,22,0.00
2014-5-21,85,75,66,64,59,55,74,59,49,29.93,29.82,17,6,17,0.00
2014-5-22,90,74,61,65,59,54,79,60,45,30.04,29.93,12,2,12,0.00
2014-5-23,87,72,60,64,59,52,78,65,47,30.03,29.95,17,2,17,0.27
2014-5-24,83,70,67,63,58,55,77,66,52,30.02,29.91,11,2,11,0.69
2014-5-25,87,74,61,63,59,54,80,61,45,29.97,29.87,12,3,12,0.00
2014-5-26,87,73,66,64,59,56,76,62,48,29.98,29.89,21,4,21,0.27
2014-5-27,83,70,61,63,58,54,82,69,51,29.94,29.82,13,2,13,0.19
2014-5-28,85,72,61,64,58,54,79,63,48,29.89,29.82,9,2,9,0.00
2014-5-29,86,71,61,63,59,55,81,67,50,29.87,29.82,17,2,17,0.17
2014-5-30,83,71,63,64,59,56,81,66,51,29.94,29.87,19,3,19,0.17
2014-5-31,86,74,64,65,60,56,78,63,49,29.96,29.87,13,3,13,0.00
2014-6-1,84,75,68,64,60,58,74,60,51,29.93,29.77,18,6,18,0.00
2014-6-2,85,75,64,64,60,54,76,61,50,29.91,29.83,14,4,14,0.26
2014-6-3,93,78,67,70,63,59,77,60,45,29.95,29.75,18,4,18,0.00
2014-6-4,88,79,72,67,63,59,66,59,49,29.79,29.65,17,5,17,0.01
2014-6-5,79,71,64,66,60,55,77,69,54,29.93,29.64,20,3,20,0.85
2014-6-6,80,71,66,63,60,57,78,69,56,29.88,29.75,22,2,22,0.73
2014-6-7,82,73,66,62,59,56,74,62,50,29.85,29.68,23,7,23,0.30
2014-6-8,72,65,59,59,55,52,79,70,58,29.94,29.83,7,1,7,0.11
2014-6-9,71,66,62,60,56,52,77,71,65,29.84,29.57,12,3,12,0.19
2014-6-10,80,66,56,60,56,51,84,70,51,29.67,29.57,12,2,12,0.37
2014-6-11,79,68,61,60,56,53,77,66,53,29.76,29.67,11,2,11,0.01
2014-6-12,72,66,59,60,56,53,82,72,61,29.89,29.74,8,2,8,0.17
2014-6-13,82,68,57,60,53,50,85,63,38,29.99,29.88,11,2,11,0.01
2014-6-14,83,71,56,62,55,47,74,58,49,29.92,29.75,22,7,22,0.00
2014-6-15,82,72,64,63,59,54,78,63,51,29.90,29.69,20,6,20,0.32
2014-6-16,92,81,72,68,63,60,67,56,45,29.96,29.81,22,9,22,0.00
2014-6-17,90,80,72,66,63,60,66,56,46,29.91,29.81,18,9,18,0.00
2014-6-18,91,81,73,66,63,60,65,55,44,29.89,29.84,17,8,17,0.00
2014-6-19,90,80,71,66,62,58,66,55,45,29.96,29.87,19,7,19,0.00
2014-6-20,91,79,70,68,63,59,70,58,46,29.99,29.89,13,4,13,0.00
2014-6-21,93,79,68,69,62,59,74,58,43,29.94,29.80,11,3,11,0.01
2014-6-22,91,80,69,66,62,58,73,56,45,29.85,29.71,11,4,11,0.01
2014-6-23,79,73,67,64,60,56,75,65,55,29.82,29.74,10,2,10,0.72
2014-6-24,87,75,67,64,61,57,80,63,44,29.93,29.82,11,2,11,0.01
2014-6-25,87,72,63,66,60,56,81,65,50,30.00,29.90,13,2,13,0.08
2014-6-26,89,76,64,67,61,57,79,62,47,29.94,29.79,13,3,13,0.00
2014-6-27,88,77,69,66,62,60,74,61,50,29.86,29.79,21,6,21,0.00
2014-6-28,84,75,68,66,62,59,75,63,53,29.87,29.78,21,7,21,0.22
2014-6-29,91,79,68,70,65,57,77,63,48,29.92,29.79,14,5,14,0.20
2014-6-30,93,83,74,70,65,62,68,56,44,29.86,29.69,19,8,19,0.00
2014-7-1,87,80,73,66,62,57,61,55,46,29.85,29.74,13,4,13,0.00
2014-7-2,82,73,65,59,55,51,68,54,42,30.01,29.90,15,3,15,0.00
2014-7-3,85,67,52,60,52,46,81,60,41,30.12,30.06,10,2,10,0.00
2014-7-4,88,71,52,64,55,47,82,60,43,30.19,30.09,11,2,11,0.00
2014-7-5,86,75,67,64,58,53,64,56,49,30.13,29.96,15,6,15,0.00
2014-7-6,83,74,68,64,60,57,74,62,52,30.00,29.81,17,5,17,0.20
2014-7-7,94,82,72,70,64,59,66,55,45,29.85,29.73,21,8,21,0.00
2014-7-8,87,75,66,65,60,57,77,62,47,29.94,29.77,17,4,17,1.39
2014-7-9,88,74,60,62,58,54,82,60,38,29.98,29.91,9,1,9,0.00
2014-7-10,84,71,61,64,58,53,79,63,50,30.02,29.93,12,2,12,0.00
2014-7-11,92,80,69,69,62,57,69,56,46,30.04,29.97,12,5,14,0.00
2014-7-12,93,82,73,69,63,60,66,53,44,30.05,29.93,16,5,16,0.00
2014-7-13,95,82,72,69,63,58,62,53,43,29.98,29.83,16,4,16,0.00
2014-7-14,90,76,69,68,62,53,77,63,47,29.91,29.85,16,2,16,0.20
2014-7-15,79,66,53,55,51,47,81,60,44,30.02,29.93,11,2,11,0.00
2014-7-16,82,66,53,59,52,48,83,62,42,30.00,29.92,8,1,8,0.00
2014-7-17,80,66,53,58,53,48,82,63,45,29.99,29.94,12,2,12,0.00
2014-7-18,84,70,59,61,55,52,78,61,46,30.01,29.91,14,2,14,0.00
2014-7-19,86,70,54,63,56,49,84,63,45,29.98,29.89,9,1,9,0.01
2014-7-20,85,72,58,63,58,52,81,62,47,29.97,29.88,13,2,13,0.00
2014-7-21,92,78,65,68,61,56,74,57,44,30.00,29.91,10,3,10,0.00
2014-7-22,97,82,70,71,64,59,69,55,44,30.01,29.92,12,4,12,0.00
2014-7-23,94,82,75,71,66,61,75,59,44,29.99,29.91,14,2,14,0.00
2014-7-24,87,75,64,62,58,55,77,58,42,30.04,29.91,12,3,12,0.00
2014-7-25,94,79,66,69,60,53,64,53,43,29.93,29.78,17,7,17,0.00
2014-7-26,98,84,74,71,65,62,67,54,42,29.86,29.78,22,8,22,0.00
2014-7-27,96,83,76,69,62,56,60,50,35,29.93,29.82,12,4,12,0.00
2014-7-28,86,72,59,61,55,49,72,55,43,30.08,29.99,11,3,11,0.00
2014-7-29,87,71,54,62,54,48,81,58,39,30.08,29.96,9,2,9,0.00
2014-7-30,75,69,63,59,57,54,75,65,55,30.01,29.96,10,1,10,0.05
2014-7-31,87,72,64,64,59,56,79,64,48,30.00,29.93,10,2,10,0.00
2014-8-1,88,72,60,65,59,54,84,66,45,30.01,29.93,9,1,9,0.00
2014-8-2,92,76,60,67,60,55,82,58,39,30.04,29.96,8,1,8,0.00
2014-8-3,89,75,62,65,60,55,79,60,44,30.07,29.96,10,2,10,0.01
2014-8-4,94,77,62,67,60,55,78,59,41,30.04,29.92,11,2,11,0.00
2014-8-5,96,82,68,68,62,57,69,52,39,30.00,29.92,11,4,11,0.00
2014-8-6,96,80,66,69,63,58,78,56,41,29.96,29.82,17,4,17,0.00
2014-8-7,90,77,67,66,63,58,78,62,46,29.87,26.74,16,5,16,0.91
2014-8-8,92,78,70,69,65,62,82,64,45,29.87,29.79,8,1,8,0.06
2014-8-9,94,77,66,68,63,60,84,65,47,29.93,29.86,8,1,8,0.00
2014-8-10,92,78,67,70,64,61,84,66,47,29.93,29.83,14,3,14,0.00
2014-8-11,90,76,69,65,62,56,79,63,46,29.95,29.87,11,3,11,0.00
2014-8-12,84,70,56,59,54,51,86,61,37,29.99,29.93,12,2,12,0.00
2014-8-13,88,70,52,62,55,48,86,61,39,30.05,29.95,11,1,11,0.00
2014-8-14,92,74,55,62,57,50,85,59,34,30.00,29.89,11,2,11,0.00
2014-8-15,91,76,61,66,60,55,81,60,43,29.94,29.81,17,4,17,0.00
2014-8-16,92,80,70,69,63,58,71,57,46,29.83,29.73,16,7,16,0.06
2014-8-17,91,78,66,67,63,59,80,61,45,29.86,29.78,11,2,11,0.00
2014-8-18,95,78,62,70,62,57,84,61,41,29.85,29.72,11,1,11,0.00
2014-8-19,96,81,68,69,63,59,74,55,36,29.80,29.72,16,4,16,0.00
2014-8-20,97,83,69,70,64,60,75,54,40,29.88,29.78,23,6,23,0.00
2014-8-21,99,85,74,71,65,60,65,51,38,29.93,29.83,19,8,19,0.00
2014-8-22,101,87,75,72,66,62,66,51,35,29.92,29.82,17,6,17,0.00
2014-8-23,102,87,76,70,64,60,66,48,28,29.91,29.79,14,5,14,0.00
2014-8-24,102,84,65,70,61,55,76,49,24,29.89,29.80,13,3,13,0.00
2014-8-25,104,85,68,70,63,57,71,49,31,29.94,29.84,14,2,14,0.00
2014-8-26,103,83,71,72,64,58,73,55,35,30.02,29.91,23,2,23,0.66
2014-8-27,100,81,69,72,65,61,80,60,39,30.03,29.91,13,1,13,0.01
2014-8-28,95,82,71,69,62,58,70,52,37,29.94,29.81,15,4,15,0.00
2014-8-29,89,79,70,67,61,56,63,54,46,29.84,29.75,21,4,21,0.00
2014-8-30,91,75,67,67,61,56,75,61,44,29.87,29.79,18,4,18,0.86
2014-8-31,94,80,69,69,63,59,76,59,42,29.89,29.74,20,5,20,0.01
2014-9-1,86,75,63,65,61,54,76,62,49,29.94,29.71,18,6,18,0.66
2014-9-2,82,71,66,64,59,57,76,66,52,29.95,29.79,17,4,17,0.57
2014-9-3,92,78,67,69,62,58,76,59,44,29.98,29.81,19,3,19,0.25
2014-9-4,94,83,74,70,65,62,68,55,44,29.93,29.86,18,6,18,0.00
2014-9-5,95,83,72,69,64,58,67,54,44,30.02,29.90,17,5,17,0.00
2014-9-6,72,65,57,58,54,50,77,68,57,30.11,30.00,9,3,9,0.08
2014-9-7,84,66,50,61,53,45,84,64,43,30.08,29.94,8,1,10,0.00
2014-9-8,87,72,60,65,57,48,70,59,48,29.98,29.85,16,3,16,0.00
2014-9-9,93,80,70,69,62,58,65,55,45,29.89,29.69,17,7,17,0.00
2014-9-10,87,79,72,66,62,59,65,57,48,29.80,29.60,24,7,24,0.05
2014-9-11,69,63,57,58,52,47,75,68,60,30.08,29.84,11,4,11,0.00
2014-9-12,64,55,51,50,46,42,76,70,62,30.21,30.05,13,3,13,0.00
2014-9-13,68,54,43,47,42,36,79,65,44,30.25,30.12,13,2,27,0.00
2014-9-14,80,62,45,55,48,40,84,62,42,30.17,30.03,9,1,9,0.00
2014-9-15,86,72,64,64,57,50,68,59,48,30.04,29.95,21,4,21,0.00
2014-9-16,80,67,62,59,54,51,71,63,53,30.08,29.94,9,2,9,0.00
2014-9-17,73,66,63,60,57,55,78,73,63,29.94,29.77,16,4,16,2.88
2014-9-18,77,68,63,60,57,54,79,68,56,29.93,29.82,11,2,11,0.02